Time;durP1;ratioP1;P1;durP2;ratioP2;P2;SDS_P1;SDS_P2;PMS_P1;PMS_P2;Temp;Humidity;BMP_temperature;BMP_pressure;BME280_temperature;BME280_humidity;BME280_pressure;Samples;Min_cycle;Max_cycle;Signal;HPM_P1;HPM_P2
2023/04/02 00:02:31;;;;;;;0.47;0.47;;;;;;;;;;4974960;28;20331;-73
2023/04/02 00:05:24;;;;;;;0.38;0.35;;;;;;;;;;4975685;28;20148;-74
2023/04/02 00:07:52;;;;;;;0.47;0.40;;;;;;;;;;4978657;28;20157;-74
2023/04/02 00:10:28;;;;;;;0.80;0.40;;;;;;;;;;4971314;28;20042;-71
2023/04/02 00:12:59;;;;;;;0.50;0.40;;;;;;;;;;4974693;28;20045;-71
2023/04/02 00:15:25;;;;;;;0.50;0.30;;;;;;;;;;4974189;28;20054;-74
2023/04/02 00:17:50;;;;;;;1.00;0.45;;;;;;;;;;4969121;28;20062;-74
2023/04/02 00:20:18;;;;;;;0.43;0.40;;;;;;;;;;4969678;28;20198;-70
2023/04/02 00:22:44;;;;;;;0.40;0.40;;;;;;;;;;4971229;28;20051;-73
2023/04/02 00:25:12;;;;;;;0.25;0.25;;;;;;;;;;4981676;28;20068;-73
2023/04/02 00:27:38;;;;;;;0.30;0.30;;;;;;;;;;4982374;28;20050;-73
2023/04/02 00:30:05;;;;;;;0.38;0.38;;;;;;;;;;4982257;28;20063;-73
2023/04/02 00:32:32;;;;;;;1.58;0.40;;;;;;;;;;4998409;28;20066;-73
2023/04/02 00:34:58;;;;;;;1.05;0.43;;;;;;;;;;4973720;28;20108;-74
2023/04/02 00:37:28;;;;;;;1.17;0.50;;;;;;;;;;4979916;28;20386;-73
2023/04/02 00:40:06;;;;;;;1.23;0.50;;;;;;;;;;4972258;28;20389;-75
2023/04/02 00:42:33;;;;;;;0.80;0.50;;;;;;;;;;4978057;28;20053;-75
2023/04/02 00:45:00;;;;;;;0.63;0.52;;;;;;;;;;4969236;28;20039;-73
2023/04/02 00:47:36;;;;;;;0.35;0.30;;;;;;;;;;4972070;28;20053;-71
2023/04/02 00:50:13;;;;;;;1.20;0.50;;;;;;;;;;4990831;28;20070;-74
2023/04/02 00:52:41;;;;;;;0.40;0.40;;;;;;;;;;4994669;28;20579;-72
2023/04/02 00:55:22;;;;;;;1.65;0.35;;;;;;;;;;4988306;28;20122;-74
2023/04/02 00:57:50;;;;;;;0.43;0.40;;;;;;;;;;4993107;28;20128;-74
2023/04/02 01:00:28;;;;;;;0.30;0.30;;;;;;;;;;4980078;28;20065;-75
2023/04/02 01:03:15;;;;;;;0.65;0.45;;;;;;;;;;4988869;28;20089;-72
2023/04/02 01:05:43;;;;;;;0.30;0.30;;;;;;;;;;4974297;28;20054;-75
2023/04/02 01:08:42;;;;;;;0.68;0.40;;;;;;;;;;4982572;28;20049;-72
2023/04/02 01:11:27;;;;;;;0.52;0.38;;;;;;;;;;4989610;28;20046;-74
2023/04/02 01:14:00;;;;;;;0.20;0.20;;;;;;;;;;4980695;28;20051;-73
2023/04/02 01:16:29;;;;;;;0.22;0.22;;;;;;;;;;4993813;28;20047;-71
2023/04/02 01:19:17;;;;;;;4.60;0.30;;;;;;;;;;4967344;28;20085;-74
2023/04/02 01:21:52;;;;;;;0.80;0.40;;;;;;;;;;4985862;28;20058;-73
2023/04/02 01:24:19;;;;;;;0.77;0.40;;;;;;;;;;4987843;28;20046;-71
2023/04/02 01:26:59;;;;;;;0.30;0.30;;;;;;;;;;4989561;28;20045;-72
2023/04/02 01:29:41;;;;;;;0.50;0.50;;;;;;;;;;4985887;28;20054;-74
2023/04/02 01:32:11;;;;;;;1.70;0.25;;;;;;;;;;4992025;28;20034;-72
2023/04/02 01:34:40;;;;;;;0.35;0.35;;;;;;;;;;4991864;28;20474;-71
2023/04/02 01:37:21;;;;;;;0.38;0.30;;;;;;;;;;4978966;28;20054;-72
2023/04/02 01:39:47;;;;;;;3.75;0.85;;;;;;;;;;4990431;28;20144;-72
2023/04/02 01:42:41;;;;;;;0.43;0.30;;;;;;;;;;4974375;28;20588;-73
2023/04/02 01:45:10;;;;;;;0.28;0.28;;;;;;;;;;4993902;28;20526;-70
2023/04/02 01:47:37;;;;;;;2.85;0.60;;;;;;;;;;4979008;28;20054;-72
2023/04/02 01:50:35;;;;;;;0.68;0.40;;;;;;;;;;4978663;28;20682;-74
2023/04/02 01:53:06;;;;;;;0.52;0.35;;;;;;;;;;4991852;28;20042;-74
2023/04/02 01:55:37;;;;;;;0.20;0.20;;;;;;;;;;4970811;28;20562;-74
2023/04/02 01:58:03;;;;;;;0.57;0.40;;;;;;;;;;4991583;28;20050;-72
2023/04/02 02:00:31;;;;;;;0.85;0.30;;;;;;;;;;4975444;28;20671;-73
2023/04/02 02:02:59;;;;;;;0.50;0.30;;;;;;;;;;4992990;28;20049;-72
2023/04/02 02:05:26;;;;;;;0.40;0.40;;;;;;;;;;4977123;28;20097;-73
2023/04/02 02:07:55;;;;;;;0.40;0.40;;;;;;;;;;4973022;28;20051;-72
2023/04/02 02:10:41;;;;;;;1.13;0.38;;;;;;;;;;4988382;28;20039;-74
2023/04/02 02:13:14;;;;;;;0.57;0.57;;;;;;;;;;4986883;28;20046;-75
2023/04/02 02:15:40;;;;;;;1.80;0.47;;;;;;;;;;4972691;28;20051;-73
2023/04/02 02:18:10;;;;;;;0.80;0.50;;;;;;;;;;4978420;28;20053;-72
2023/04/02 02:20:35;;;;;;;0.73;0.43;;;;;;;;;;4981498;28;20057;-73
2023/04/02 02:23:03;;;;;;;0.50;0.35;;;;;;;;;;4992179;28;20050;-74
2023/04/02 02:25:31;;;;;;;1.00;0.50;;;;;;;;;;4973353;28;20172;-74
2023/04/02 02:28:17;;;;;;;0.45;0.43;;;;;;;;;;4974274;28;20153;-74
2023/04/02 02:30:48;;;;;;;0.52;0.50;;;;;;;;;;4973986;28;20109;-73
2023/04/02 02:33:25;;;;;;;0.95;0.30;;;;;;;;;;4994914;28;20765;-74
2023/04/02 02:36:00;;;;;;;0.30;0.30;;;;;;;;;;4994399;28;20053;-75
2023/04/02 02:38:33;;;;;;;1.67;0.43;;;;;;;;;;4984300;28;20093;-74
2023/04/02 02:41:30;;;;;;;0.43;0.43;;;;;;;;;;4982301;28;20044;-70
2023/04/02 02:44:03;;;;;;;0.30;0.30;;;;;;;;;;4989476;28;20054;-71
2023/04/02 02:46:30;;;;;;;;;;;;;;;;;;4988616;28;20286;-71
2023/04/02 02:48:58;;;;;;;2.45;0.50;;;;;;;;;;4984052;28;19925;-71
2023/04/02 02:51:28;;;;;;;1.10;0.70;;;;;;;;;;4993225;28;20133;-70
2023/04/02 02:54:01;;;;;;;0.93;0.30;;;;;;;;;;4996409;28;21014;-73
2023/04/02 02:56:27;;;;;;;;;;;;;;;;;;4997423;28;20517;-73
2023/04/02 02:58:53;;;;;;;0.25;0.25;;;;;;;;;;4977926;28;19957;-74
2023/04/02 03:01:23;;;;;;;0.30;0.30;;;;;;;;;;4992127;28;20146;-73
2023/04/02 03:03:52;;;;;;;0.50;0.40;;;;;;;;;;4991733;28;20054;-75
2023/04/02 03:06:19;;;;;;;0.50;0.45;;;;;;;;;;4994785;28;20129;-75
2023/04/02 03:08:59;;;;;;;0.20;0.20;;;;;;;;;;4987687;28;20049;-75
2023/04/02 03:11:51;;;;;;;1.05;0.65;;;;;;;;;;4948451;28;20051;-72
2023/04/02 03:14:37;;;;;;;0.70;0.50;;;;;;;;;;4980102;28;20142;-74
2023/04/02 03:17:21;;;;;;;0.93;0.55;;;;;;;;;;4985864;28;20045;-76
2023/04/02 03:20:05;;;;;;;1.48;0.50;;;;;;;;;;4988385;28;20097;-72
2023/04/02 03:22:42;;;;;;;0.93;0.47;;;;;;;;;;4972835;28;20061;-75
2023/04/02 03:25:13;;;;;;;0.47;0.43;;;;;;;;;;4990426;28;20034;-76
2023/04/02 03:27:43;;;;;;;0.30;0.30;;;;;;;;;;4981712;28;20054;-73
2023/04/02 03:30:20;;;;;;;0.43;0.43;;;;;;;;;;4973330;28;20043;-75
2023/04/02 03:32:50;;;;;;;0.68;0.50;;;;;;;;;;4990463;28;20578;-71
2023/04/02 03:35:27;;;;;;;1.45;0.52;;;;;;;;;;4990288;28;20046;-73
2023/04/02 03:38:00;;;;;;;0.30;0.30;;;;;;;;;;4987887;28;20054;-71
2023/04/02 03:40:58;;;;;;;0.35;0.32;;;;;;;;;;4972935;28;20415;-72
2023/04/02 03:43:27;;;;;;;1.10;0.40;;;;;;;;;;4949475;28;20140;-70
2023/04/02 03:46:10;;;;;;;0.82;0.52;;;;;;;;;;5007543;28;20047;-73
2023/04/02 03:48:48;;;;;;;0.65;0.30;;;;;;;;;;5007121;28;20050;-69
2023/04/02 03:51:23;;;;;;;1.95;0.35;;;;;;;;;;4991045;28;20054;-73
2023/04/02 03:53:49;;;;;;;1.13;0.45;;;;;;;;;;4986863;28;20092;-75
2023/04/02 03:56:29;;;;;;;0.95;0.50;;;;;;;;;;4973203;28;20050;-71
2023/04/02 03:59:09;;;;;;;0.65;0.40;;;;;;;;;;4994719;28;20049;-71
2023/04/02 04:01:42;;;;;;;0.28;0.28;;;;;;;;;;4991403;28;20046;-75
2023/04/02 04:04:15;;;;;;;0.73;0.35;;;;;;;;;;4981116;28;20050;-73
2023/04/02 04:06:43;;;;;;;0.47;0.38;;;;;;;;;;4978072;28;20054;-74
2023/04/02 04:09:26;;;;;;;0.40;0.30;;;;;;;;;;4990249;28;20038;-75
2023/04/02 04:12:00;;;;;;;0.85;0.57;;;;;;;;;;4966606;28;20148;-74
2023/04/02 04:14:31;;;;;;;0.50;0.35;;;;;;;;;;4964902;28;20124;-71
2023/04/02 04:17:37;;;;;;;0.40;0.40;;;;;;;;;;4961762;28;20660;-75
2023/04/02 04:20:16;;;;;;;1.88;0.77;;;;;;;;;;4960412;28;20480;-75
2023/04/02 04:22:42;;;;;;;0.77;0.50;;;;;;;;;;4979506;28;20145;-75
2023/04/02 04:25:21;;;;;;;0.95;0.45;;;;;;;;;;4975880;28;20443;-75
2023/04/02 04:28:04;;;;;;;1.55;0.50;;;;;;;;;;4990284;28;20444;-75
2023/04/02 04:30:59;;;;;;;0.68;0.60;;;;;;;;;;4992452;28;20136;-72
2023/04/02 04:33:40;;;;;;;0.40;0.40;;;;;;;;;;4988697;28;20081;-73
2023/04/02 04:36:30;;;;;;;0.68;0.50;;;;;;;;;;4962185;28;20162;-75
2023/04/02 04:39:13;;;;;;;2.28;0.68;;;;;;;;;;4988776;28;20550;-73
2023/04/02 04:41:43;;;;;;;1.90;0.60;;;;;;;;;;4995333;28;20108;-73
2023/04/02 04:44:21;;;;;;;0.52;0.45;;;;;;;;;;4987278;28;20042;-72
2023/04/02 04:47:05;;;;;;;0.40;0.40;;;;;;;;;;4987965;28;20063;-74
2023/04/02 04:49:52;;;;;;;0.50;0.50;;;;;;;;;;4976375;28;20053;-73
2023/04/02 04:52:39;;;;;;;0.52;0.50;;;;;;;;;;4989932;28;20578;-70
2023/04/02 04:55:33;;;;;;;0.93;0.60;;;;;;;;;;4979332;28;20133;-73
2023/04/02 04:58:21;;;;;;;0.73;0.47;;;;;;;;;;4978712;28;20034;-71
2023/04/02 05:01:06;;;;;;;0.73;0.45;;;;;;;;;;4986364;28;20042;-72
2023/04/02 05:03:52;;;;;;;1.48;0.47;;;;;;;;;;4950053;28;20512;-73
2023/04/02 05:06:30;;;;;;;1.38;0.60;;;;;;;;;;4992439;28;20050;-71
2023/04/02 05:09:01;;;;;;;1.20;0.55;;;;;;;;;;4969668;28;20055;-75
2023/04/02 05:11:44;;;;;;;1.50;0.55;;;;;;;;;;4984590;28;20086;-72
2023/04/02 05:14:32;;;;;;;0.77;0.47;;;;;;;;;;4981341;28;20042;-70
2023/04/02 05:17:12;;;;;;;0.52;0.38;;;;;;;;;;4995569;28;20450;-72
2023/04/02 05:19:55;;;;;;;1.10;0.60;;;;;;;;;;4986476;28;20051;-74
2023/04/02 05:22:36;;;;;;;0.65;0.60;;;;;;;;;;4988292;28;20125;-75
2023/04/02 05:25:15;;;;;;;0.63;0.60;;;;;;;;;;4990696;28;20046;-73
2023/04/02 05:27:48;;;;;;;1.33;0.63;;;;;;;;;;4992998;28;20046;-73
2023/04/02 05:30:22;;;;;;;0.40;0.40;;;;;;;;;;4982674;28;20042;-71
2023/04/02 05:32:56;;;;;;;0.35;0.35;;;;;;;;;;4977420;28;20042;-72
2023/04/02 05:35:30;;;;;;;0.98;0.50;;;;;;;;;;4968795;28;20126;-72
2023/04/02 05:37:58;;;;;;;0.60;0.60;;;;;;;;;;4981037;28;20647;-72
2023/04/02 05:40:30;;;;;;;1.50;0.60;;;;;;;;;;4993302;28;20048;-72
2023/04/02 05:43:00;;;;;;;0.90;0.50;;;;;;;;;;4998142;28;20038;-72
2023/04/02 05:45:34;;;;;;;0.52;0.50;;;;;;;;;;4987207;28;20050;-72
2023/04/02 05:48:09;;;;;;;1.60;0.60;;;;;;;;;;4983925;28;20056;-72
2023/04/02 05:50:44;;;;;;;1.02;0.68;;;;;;;;;;4997777;28;20073;-71
2023/04/02 05:53:32;;;;;;;1.40;0.50;;;;;;;;;;4982673;28;20061;-72
2023/04/02 05:56:16;;;;;;;1.60;0.60;;;;;;;;;;4979980;28;20516;-73
2023/04/02 05:58:43;;;;;;;2.17;0.40;;;;;;;;;;4986397;28;20097;-73
2023/04/02 06:01:44;;;;;;;1.30;0.60;;;;;;;;;;4990131;28;20554;-75
2023/04/02 06:04:40;;;;;;;0.65;0.50;;;;;;;;;;4975087;28;20499;-73
2023/04/02 06:07:24;;;;;;;1.60;0.60;;;;;;;;;;4988415;28;20047;-73
2023/04/02 06:10:06;;;;;;;2.38;0.40;;;;;;;;;;4993723;28;20051;-71
2023/04/02 06:12:47;;;;;;;2.35;0.60;;;;;;;;;;4965996;28;20051;-70
2023/04/02 06:15:20;;;;;;;1.00;0.50;;;;;;;;;;4984381;28;20046;-71
2023/04/02 06:17:51;;;;;;;1.77;0.50;;;;;;;;;;4968641;28;20093;-73
2023/04/02 06:20:20;;;;;;;1.90;0.50;;;;;;;;;;4966039;28;20077;-74
2023/04/02 06:23:01;;;;;;;1.02;0.57;;;;;;;;;;4969592;28;20158;-74
2023/04/02 06:25:31;;;;;;;0.68;0.55;;;;;;;;;;4978482;28;20055;-72
2023/04/02 06:27:59;;;;;;;0.50;0.50;;;;;;;;;;4967428;28;20217;-73
2023/04/02 06:30:30;;;;;;;0.47;0.45;;;;;;;;;;4967908;28;20045;-73
2023/04/02 06:32:56;;;;;;;0.60;0.60;;;;;;;;;;4982081;28;20046;-73
2023/04/02 06:35:23;;;;;;;1.60;0.70;;;;;;;;;;4966198;28;20043;-72
2023/04/02 06:38:01;;;;;;;0.60;0.50;;;;;;;;;;4980041;28;20137;-73
2023/04/02 06:40:41;;;;;;;3.13;0.70;;;;;;;;;;4980750;28;20039;-73
2023/04/02 06:43:47;;;;;;;0.90;0.60;;;;;;;;;;4991552;28;20058;-72
2023/04/02 06:46:25;;;;;;;0.45;0.45;;;;;;;;;;4963737;28;20047;-72
2023/04/02 06:49:21;;;;;;;1.50;0.60;;;;;;;;;;4963977;28;20594;-73
2023/04/02 06:51:51;;;;;;;0.60;0.50;;;;;;;;;;4979614;28;21073;-72
2023/04/02 06:54:18;;;;;;;0.50;0.50;;;;;;;;;;4964903;28;20061;-72
2023/04/02 06:56:51;;;;;;;0.40;0.40;;;;;;;;;;4979106;28;20062;-73
2023/04/02 06:59:30;;;;;;;3.40;0.60;;;;;;;;;;4962775;28;20776;-71
2023/04/02 07:02:05;;;;;;;2.35;0.90;;;;;;;;;;4983933;28;20160;-72
2023/04/02 07:04:32;;;;;;;2.15;0.60;;;;;;;;;;4986632;28;20084;-72
2023/04/02 07:06:58;;;;;;;1.88;0.75;;;;;;;;;;4986352;28;20046;-71
2023/04/02 07:09:26;;;;;;;0.63;0.43;;;;;;;;;;4983424;28;20061;-71
2023/04/02 07:11:55;;;;;;;0.73;0.50;;;;;;;;;;4982638;28;20089;-72
2023/04/02 07:14:21;;;;;;;1.58;0.50;;;;;;;;;;4965667;28;20153;-73
2023/04/02 07:16:46;;;;;;;0.93;0.50;;;;;;;;;;4978093;28;20109;-73
2023/04/02 07:19:21;;;;;;;1.55;0.57;;;;;;;;;;4967333;28;20045;-73
2023/04/02 07:21:50;;;;;;;0.70;0.70;;;;;;;;;;4981324;28;20131;-71
2023/04/02 07:24:16;;;;;;;2.15;0.35;;;;;;;;;;4959880;28;20257;-70
2023/04/02 07:26:42;;;;;;;0.50;0.40;;;;;;;;;;4963617;28;20395;-70
2023/04/02 07:29:12;;;;;;;1.35;0.55;;;;;;;;;;4963241;28;20407;-70
2023/04/02 07:31:39;;;;;;;0.52;0.40;;;;;;;;;;4966218;28;20058;-69
2023/04/02 07:34:05;;;;;;;1.98;0.63;;;;;;;;;;4965348;28;20050;-69
2023/04/02 07:36:31;;;;;;;0.60;0.60;;;;;;;;;;4974316;28;20053;-69
2023/04/02 07:38:56;;;;;;;1.90;0.50;;;;;;;;;;4972825;28;20054;-71
2023/04/02 07:41:22;;;;;;;1.63;0.50;;;;;;;;;;4970283;28;20046;-70
2023/04/02 07:43:48;;;;;;;0.85;0.70;;;;;;;;;;4974018;28;20492;-71
2023/04/02 07:46:15;;;;;;;0.50;0.50;;;;;;;;;;4963687;28;20039;-72
2023/04/02 07:48:41;;;;;;;0.90;0.50;;;;;;;;;;4961607;28;20042;-72
2023/04/02 07:51:24;;;;;;;1.00;0.80;;;;;;;;;;4972830;28;20039;-71
2023/04/02 07:53:54;;;;;;;2.58;0.85;;;;;;;;;;4964642;28;20057;-71
2023/04/02 07:56:21;;;;;;;2.28;0.73;;;;;;;;;;4973126;28;21049;-71
2023/04/02 07:58:47;;;;;;;0.90;0.50;;;;;;;;;;4976423;28;20054;-70
2023/04/02 08:01:25;;;;;;;1.15;0.57;;;;;;;;;;4974628;28;20392;-70
2023/04/02 08:03:51;;;;;;;1.60;0.80;;;;;;;;;;4975014;28;20058;-70
2023/04/02 08:06:17;;;;;;;0.50;0.50;;;;;;;;;;4970219;28;20046;-71
2023/04/02 08:08:42;;;;;;;4.00;0.73;;;;;;;;;;4976646;28;20039;-71
2023/04/02 08:11:09;;;;;;;1.05;0.65;;;;;;;;;;4974843;28;20474;-71
2023/04/02 08:13:35;;;;;;;1.25;0.60;;;;;;;;;;4976281;28;20053;-70
2023/04/02 08:16:01;;;;;;;1.38;0.60;;;;;;;;;;4975203;28;20037;-70
2023/04/02 08:18:28;;;;;;;1.17;0.80;;;;;;;;;;4972351;28;20054;-71
2023/04/02 08:20:54;;;;;;;2.42;0.73;;;;;;;;;;4975964;28;20047;-71
2023/04/02 08:23:20;;;;;;;0.45;0.45;;;;;;;;;;4975512;28;20058;-70
2023/04/02 08:25:46;;;;;;;1.95;0.80;;;;;;;;;;4972158;28;20550;-70
2023/04/02 08:28:12;;;;;;;1.35;0.60;;;;;;;;;;4975807;28;20502;-70
2023/04/02 08:30:38;;;;;;;0.70;0.47;;;;;;;;;;4972857;28;20598;-70
2023/04/02 08:33:04;;;;;;;0.90;0.68;;;;;;;;;;4971367;28;20072;-71
2023/04/02 08:35:30;;;;;;;0.90;0.70;;;;;;;;;;4974017;28;20057;-71
2023/04/02 08:37:55;;;;;;;0.95;0.70;;;;;;;;;;4968705;28;20081;-72
2023/04/02 08:40:26;;;;;;;0.63;0.63;;;;;;;;;;4965159;28;20047;-72
2023/04/02 08:43:04;;;;;;;1.23;0.70;;;;;;;;;;4961868;28;20043;-69
2023/04/02 08:46:11;;;;;;;1.25;0.55;;;;;;;;;;4976850;28;20051;-74
2023/04/02 08:48:42;;;;;;;0.60;0.47;;;;;;;;;;4951882;28;20531;-70
2023/04/02 08:51:21;;;;;;;0.40;0.40;;;;;;;;;;4967596;28;20097;-70
2023/04/02 08:53:47;;;;;;;2.45;0.80;;;;;;;;;;4969191;28;20423;-72
2023/04/02 08:56:41;;;;;;;1.42;0.50;;;;;;;;;;4970950;28;20076;-72
2023/04/02 08:59:26;;;;;;;12.93;1.23;;;;;;;;;;4968031;28;20137;-71
2023/04/02 09:02:11;;;;;;;9.02;0.75;;;;;;;;;;4970015;28;20065;-72
2023/04/02 09:04:37;;;;;;;0.60;0.60;;;;;;;;;;4971155;28;20054;-71
2023/04/02 09:07:03;;;;;;;0.70;0.60;;;;;;;;;;4973786;28;20052;-70
2023/04/02 09:09:34;;;;;;;1.13;0.60;;;;;;;;;;4976160;28;20054;-71
2023/04/02 09:12:03;;;;;;;1.90;0.70;;;;;;;;;;4969119;28;20180;-70
2023/04/02 09:14:42;;;;;;;2.67;0.50;;;;;;;;;;4968380;28;20587;-70
2023/04/02 09:17:22;;;;;;;1.55;0.73;;;;;;;;;;4968179;28;20072;-71
2023/04/02 09:20:12;;;;;;;1.60;0.70;;;;;;;;;;4968488;28;20061;-73
2023/04/02 09:22:38;;;;;;;1.15;0.55;;;;;;;;;;4977477;28;20503;-72
2023/04/02 09:25:10;;;;;;;0.55;0.35;;;;;;;;;;4968205;28;20046;-72
2023/04/02 09:27:36;;;;;;;1.88;0.30;;;;;;;;;;4969088;28;20052;-72
2023/04/02 09:30:20;;;;;;;0.50;0.50;;;;;;;;;;4971636;28;20046;-71
2023/04/02 09:32:51;;;;;;;4.05;0.70;;;;;;;;;;4972221;28;20051;-71
2023/04/02 09:35:46;;;;;;;0.63;0.52;;;;;;;;;;4969051;28;20072;-72
2023/04/02 09:38:21;;;;;;;1.80;0.73;;;;;;;;;;4951813;28;20047;-71
2023/04/02 09:40:54;;;;;;;0.68;0.57;;;;;;;;;;4985109;28;20046;-72
2023/04/02 09:43:23;;;;;;;1.05;0.60;;;;;;;;;;4967974;28;20126;-71
2023/04/02 09:46:02;;;;;;;0.88;0.60;;;;;;;;;;4972193;28;20508;-71
2023/04/02 09:48:30;;;;;;;3.58;0.70;;;;;;;;;;4971132;28;20074;-71
2023/04/02 09:51:15;;;;;;;1.58;0.60;;;;;;;;;;4971465;28;20043;-71
2023/04/02 09:53:48;;;;;;;0.88;0.52;;;;;;;;;;4986678;28;20097;-71
2023/04/02 09:56:20;;;;;;;2.15;0.73;;;;;;;;;;4967092;28;20579;-71
2023/04/02 09:59:14;;;;;;;0.90;0.50;;;;;;;;;;4969515;28;20130;-71
2023/04/02 10:01:44;;;;;;;0.32;0.32;;;;;;;;;;4976584;28;20046;-72
2023/04/02 10:04:43;;;;;;;0.50;0.50;;;;;;;;;;4970174;28;20066;-72
2023/04/02 10:07:28;;;;;;;2.10;0.57;;;;;;;;;;4972097;28;20510;-72
2023/04/02 10:10:02;;;;;;;1.73;0.95;;;;;;;;;;4976430;28;20058;-72
2023/04/02 10:12:34;;;;;;;0.68;0.63;;;;;;;;;;4970620;28;20480;-73
2023/04/02 10:15:02;;;;;;;0.90;0.60;;;;;;;;;;4966462;28;20589;-72
2023/04/02 10:17:31;;;;;;;0.98;0.57;;;;;;;;;;4973008;28;20716;-72
2023/04/02 10:20:10;;;;;;;0.73;0.50;;;;;;;;;;4974168;28;20157;-73
2023/04/02 10:22:36;;;;;;;0.50;0.47;;;;;;;;;;4972190;28;20055;-72
2023/04/02 10:25:01;;;;;;;0.52;0.52;;;;;;;;;;4974650;28;20057;-71
2023/04/02 10:27:59;;;;;;;0.88;0.55;;;;;;;;;;4973872;28;20058;-72
2023/04/02 10:30:30;;;;;;;0.80;0.50;;;;;;;;;;4973025;28;20497;-74
2023/04/02 10:33:05;;;;;;;0.57;0.57;;;;;;;;;;4971652;28;20918;-73
2023/04/02 10:35:47;;;;;;;0.52;0.43;;;;;;;;;;4978544;28;20061;-73
2023/04/02 10:38:22;;;;;;;;;;;;;;;;;;4970264;28;20049;-74
2023/04/02 10:40:56;;;;;;;0.68;0.60;;;;;;;;;;4970764;28;19921;-73
2023/04/02 10:44:03;;;;;;;1.52;0.60;;;;;;;;;;4974070;28;20106;-74
2023/04/02 10:47:21;;;;;;;0.88;0.47;;;;;;;;;;4969481;28;20050;-73
2023/04/02 10:50:03;;;;;;;0.50;0.30;;;;;;;;;;4967917;28;20085;-72
2023/04/02 10:52:35;;;;;;;0.50;0.40;;;;;;;;;;4967812;28;20079;-72
2023/04/02 10:55:27;;;;;;;3.22;0.77;;;;;;;;;;4977701;28;20057;-74
2023/04/02 10:57:55;;;;;;;;;;;;;;;;;;4966565;28;20124;-74
2023/04/02 11:00:33;;;;;;;0.70;0.50;;;;;;;;;;4969208;28;19972;-74
2023/04/02 11:02:58;;;;;;;1.20;0.52;;;;;;;;;;4972293;28;20050;-74
2023/04/02 11:05:39;;;;;;;0.55;0.50;;;;;;;;;;4987752;28;20045;-75
2023/04/02 11:08:28;;;;;;;3.00;0.60;;;;;;;;;;4969292;28;20649;-74
2023/04/02 11:11:13;;;;;;;2.05;0.60;;;;;;;;;;4972088;28;20049;-73
2023/04/02 11:13:46;;;;;;;0.88;0.80;;;;;;;;;;4966547;28;20061;-74
2023/04/02 11:16:14;;;;;;;0.82;0.70;;;;;;;;;;4970216;28;20104;-73
2023/04/02 11:19:07;;;;;;;1.60;0.90;;;;;;;;;;4970723;28;20050;-73
2023/04/02 11:21:42;;;;;;;0.63;0.40;;;;;;;;;;4998985;28;20420;-71
2023/04/02 11:24:23;;;;;;;1.00;0.65;;;;;;;;;;4968069;28;20086;-71
2023/04/02 11:26:48;;;;;;;0.70;0.60;;;;;;;;;;4964254;28;20078;-71
2023/04/02 11:29:28;;;;;;;1.33;0.50;;;;;;;;;;4969388;28;20507;-71
2023/04/02 11:32:26;;;;;;;0.60;0.60;;;;;;;;;;4968046;28;20481;-71
2023/04/02 11:34:52;;;;;;;1.20;0.60;;;;;;;;;;4967389;28;20042;-71
2023/04/02 11:37:42;;;;;;;1.00;0.90;;;;;;;;;;4964626;28;20466;-71
2023/04/02 11:40:12;;;;;;;0.65;0.60;;;;;;;;;;4965124;28;20076;-71
2023/04/02 11:42:42;;;;;;;0.50;0.50;;;;;;;;;;4971936;28;20062;-71
2023/04/02 11:45:22;;;;;;;2.90;0.73;;;;;;;;;;4971183;28;20046;-71
2023/04/02 11:48:00;;;;;;;1.10;0.70;;;;;;;;;;4969087;28;20073;-71
2023/04/02 11:50:34;;;;;;;2.72;0.65;;;;;;;;;;4963970;28;20113;-71
2023/04/02 11:53:16;;;;;;;0.38;0.38;;;;;;;;;;4970424;28;20046;-72
2023/04/02 11:56:03;;;;;;;1.90;0.60;;;;;;;;;;4970604;28;20145;-71
2023/04/02 11:58:46;;;;;;;4.00;1.05;;;;;;;;;;4976398;28;20512;-71
2023/04/02 12:01:33;;;;;;;1.05;0.80;;;;;;;;;;4965075;28;20085;-71
2023/04/02 12:04:35;;;;;;;0.60;0.60;;;;;;;;;;4972702;28;20125;-71
2023/04/02 12:07:33;;;;;;;0.90;0.90;;;;;;;;;;4974285;28;20495;-71
2023/04/02 12:10:02;;;;;;;0.90;0.90;;;;;;;;;;4970166;28;20050;-71
2023/04/02 12:12:35;;;;;;;1.52;1.10;;;;;;;;;;4967513;28;20512;-71
2023/04/02 12:15:00;;;;;;;1.42;1.15;;;;;;;;;;4968565;28;20050;-72
2023/04/02 12:17:37;;;;;;;2.20;1.30;;;;;;;;;;4965188;28;20050;-71
2023/04/02 12:20:07;;;;;;;1.25;1.15;;;;;;;;;;4975354;28;20051;-71
2023/04/02 12:22:36;;;;;;;1.88;1.10;;;;;;;;;;4970426;28;20090;-71
2023/04/02 12:25:23;;;;;;;1.80;1.10;;;;;;;;;;4977541;28;20104;-71
2023/04/02 12:28:06;;;;;;;1.65;1.10;;;;;;;;;;4976755;28;20935;-71
2023/04/02 12:30:32;;;;;;;1.63;0.93;;;;;;;;;;4977063;28;20074;-71
2023/04/02 12:33:19;;;;;;;0.45;0.45;;;;;;;;;;4975732;28;20054;-70
2023/04/02 12:39:33;;;;;;;0.90;0.60;;;;;;;;;;4970790;28;20186;-72
2023/04/02 12:41:59;;;;;;;3.40;0.70;;;;;;;;;;4974089;28;20046;-72
2023/04/02 12:44:27;;;;;;;2.35;0.70;;;;;;;;;;4976249;28;20059;-71
2023/04/02 12:46:53;;;;;;;0.70;0.70;;;;;;;;;;4976647;28;20054;-71
2023/04/02 12:49:32;;;;;;;0.85;0.70;;;;;;;;;;4967400;28;20059;-72
2023/04/02 12:52:00;;;;;;;1.55;1.10;;;;;;;;;;4974278;28;20061;-71
2023/04/02 12:54:26;;;;;;;3.47;1.17;;;;;;;;;;4972124;28;20058;-72
2023/04/02 12:56:51;;;;;;;0.80;0.80;;;;;;;;;;4973622;28;20054;-70
2023/04/02 12:59:30;;;;;;;0.68;0.50;;;;;;;;;;4968762;28;20141;-71
2023/04/02 13:01:58;;;;;;;0.80;0.80;;;;;;;;;;4985298;28;20061;-71
2023/04/02 13:04:25;;;;;;;4.43;0.70;;;;;;;;;;4976750;28;20518;-71
2023/04/02 13:06:53;;;;;;;0.75;0.60;;;;;;;;;;4970288;28;20058;-71
2023/04/02 13:09:42;;;;;;;0.75;0.60;;;;;;;;;;4969166;28;20475;-71
2023/04/02 13:12:25;;;;;;;1.25;0.90;;;;;;;;;;4964049;28;20047;-70
2023/04/02 13:14:53;;;;;;;0.70;0.70;;;;;;;;;;4971553;28;20089;-71
2023/04/02 13:17:43;;;;;;;0.82;0.68;;;;;;;;;;4963488;28;20158;-71
2023/04/02 13:20:35;;;;;;;0.80;0.80;;;;;;;;;;4968435;28;20066;-71
2023/04/02 13:23:20;;;;;;;;;;;;;;;;;;4971104;28;20055;-70
2023/04/02 13:25:46;;;;;;;1.58;1.20;;;;;;;;;;4968895;28;20010;-71
2023/04/02 13:28:11;;;;;;;1.00;0.90;;;;;;;;;;4970158;28;20045;-71
2023/04/02 13:30:37;;;;;;;1.48;0.70;;;;;;;;;;4967780;28;20162;-71
2023/04/02 13:33:02;;;;;;;0.70;0.70;;;;;;;;;;4973603;28;20038;-71
2023/04/02 13:35:27;;;;;;;2.15;0.90;;;;;;;;;;4965083;28;20393;-71
2023/04/02 13:37:53;;;;;;;0.80;0.80;;;;;;;;;;4967746;28;20066;-71
2023/04/02 13:40:18;;;;;;;0.95;0.90;;;;;;;;;;4967507;28;20649;-71
2023/04/02 13:42:46;;;;;;;0.88;0.88;;;;;;;;;;4975671;28;20039;-71
2023/04/02 13:45:19;;;;;;;1.13;1.02;;;;;;;;;;4972860;28;20484;-70
2023/04/02 13:47:44;;;;;;;1.30;1.20;;;;;;;;;;4968882;28;20136;-71
2023/04/02 13:50:16;;;;;;;1.27;1.08;;;;;;;;;;4972917;28;20108;-70
2023/04/02 13:52:41;;;;;;;1.08;0.77;;;;;;;;;;4959802;28;20046;-70
2023/04/02 13:55:09;;;;;;;1.17;1.08;;;;;;;;;;4973279;28;20056;-71
2023/04/02 13:57:35;;;;;;;1.17;1.08;;;;;;;;;;4967609;28;20101;-69
2023/04/02 14:00:01;;;;;;;1.65;1.20;;;;;;;;;;4968091;28;20101;-70
2023/04/02 14:02:27;;;;;;;2.05;1.45;;;;;;;;;;4967016;28;20042;-71
2023/04/02 14:05:22;;;;;;;0.93;0.93;;;;;;;;;;4974732;28;20038;-70
2023/04/02 14:07:51;;;;;;;0.60;0.60;;;;;;;;;;4994160;28;20042;-70
2023/04/02 14:10:33;;;;;;;0.60;0.60;;;;;;;;;;4971416;28;20050;-70
2023/04/02 14:13:16;;;;;;;0.60;0.60;;;;;;;;;;4966538;28;20545;-70
2023/04/02 14:16:14;;;;;;;1.20;0.60;;;;;;;;;;4974915;28;20113;-70
2023/04/02 14:19:12;;;;;;;0.47;0.47;;;;;;;;;;4972935;28;20049;-70
2023/04/02 14:22:35;;;;;;;0.60;0.60;;;;;;;;;;4947339;28;20146;-72
2023/04/02 14:25:16;;;;;;;0.70;0.70;;;;;;;;;;4910355;28;21161;-69
2023/04/02 14:28:10;;;;;;;0.70;0.70;;;;;;;;;;4972572;28;20364;-72
2023/04/02 14:30:50;;;;;;;0.50;0.50;;;;;;;;;;4963112;28;20050;-71
2023/04/02 14:33:39;;;;;;;0.65;0.65;;;;;;;;;;4962091;28;20085;-71
2023/04/02 14:36:14;;;;;;;2.05;0.70;;;;;;;;;;4972712;28;20050;-71
2023/04/02 14:38:52;;;;;;;0.88;0.88;;;;;;;;;;4968190;28;20061;-72
2023/04/02 14:41:32;;;;;;;0.70;0.70;;;;;;;;;;4969100;28;20046;-71
2023/04/02 14:44:02;;;;;;;3.03;0.88;;;;;;;;;;4969048;28;20058;-70
2023/04/02 14:46:30;;;;;;;0.70;0.50;;;;;;;;;;4974388;28;20132;-71
2023/04/02 14:49:27;;;;;;;0.55;0.55;;;;;;;;;;4967144;28;20050;-69
2023/04/02 14:52:00;;;;;;;1.02;0.93;;;;;;;;;;4999553;28;20054;-70
2023/04/02 14:54:38;;;;;;;2.42;1.02;;;;;;;;;;4966850;28;20145;-70
2023/04/02 14:57:28;;;;;;;1.15;0.95;;;;;;;;;;4979899;28;20089;-70
2023/04/02 14:59:53;;;;;;;1.70;0.98;;;;;;;;;;4967113;28;20047;-70
2023/04/02 15:02:34;;;;;;;0.93;0.93;;;;;;;;;;4974299;28;20045;-70
2023/04/02 15:05:14;;;;;;;0.80;0.70;;;;;;;;;;4968490;28;20047;-73
2023/04/02 15:07:47;;;;;;;0.70;0.70;;;;;;;;;;4979338;28;20305;-71
2023/04/02 15:10:43;;;;;;;0.80;0.80;;;;;;;;;;4968363;28;20667;-70
2023/04/02 15:13:18;;;;;;;1.63;0.60;;;;;;;;;;4951810;28;20495;-70
2023/04/02 15:15:57;;;;;;;0.52;0.52;;;;;;;;;;4969602;28;20051;-69
2023/04/02 15:18:24;;;;;;;0.82;0.70;;;;;;;;;;4976548;28;20050;-69
2023/04/02 15:20:56;;;;;;;1.20;1.02;;;;;;;;;;4966191;28;20160;-70
2023/04/02 15:24:00;;;;;;;3.88;2.03;;;;;;;;;;4966288;28;20066;-72
2023/04/02 15:26:29;;;;;;;2.15;1.38;;;;;;;;;;4969354;28;20293;-73
2023/04/02 15:29:10;;;;;;;2.22;1.33;;;;;;;;;;4974601;28;20046;-73
2023/04/02 15:31:40;;;;;;;1.30;1.20;;;;;;;;;;4982976;28;20424;-72
2023/04/02 15:34:21;;;;;;;2.20;1.35;;;;;;;;;;4968417;28;20050;-71
2023/04/02 15:37:10;;;;;;;23.83;9.60;;;;;;;;;;4977993;28;20050;-71
2023/04/02 15:39:54;;;;;;;22.88;9.55;;;;;;;;;;4977556;28;20141;-70